createdAt,value
2022-08-23T00:00:51.169Z,4.70
2022-08-23T00:03:23.078Z,4.90
2022-08-23T00:05:55.448Z,6.40
2022-08-23T00:08:27.591Z,3.80
2022-08-23T00:10:59.722Z,4.40
2022-08-23T00:13:47.772Z,5.80
2022-08-23T00:16:20.530Z,4.40
2022-08-23T00:18:52.797Z,3.60
2022-08-23T00:21:25.019Z,4.50
2022-08-23T00:23:57.022Z,5.00
2022-08-23T00:26:29.594Z,5.50
2022-08-23T00:29:01.820Z,4.90
2022-08-23T00:31:33.797Z,6.50
2022-08-23T00:34:05.650Z,4.00
2022-08-23T00:36:38.296Z,5.70
2022-08-23T00:39:11.403Z,6.90
2022-08-23T00:41:43.557Z,5.30
2022-08-23T00:44:37.631Z,3.30
2022-08-23T00:47:30.618Z,5.50
2022-08-23T00:50:23.308Z,5.10
2022-08-23T00:53:06.430Z,4.00
2022-08-23T00:55:40.034Z,5.40
2022-08-23T00:58:15.166Z,5.00
2022-08-23T01:00:47.433Z,7.70
2022-08-23T01:03:21.129Z,5.60
2022-08-23T01:05:59.643Z,6.40
2022-08-23T01:08:33.778Z,5.60
2022-08-23T01:11:11.209Z,4.90
2022-08-23T01:13:48.593Z,4.40
2022-08-23T01:16:27.370Z,4.80
2022-08-23T01:18:59.944Z,6.30
2022-08-23T01:21:41.376Z,7.20
2022-08-23T01:24:19.212Z,6.40
2022-08-23T01:27:07.850Z,6.90
2022-08-23T01:29:40.696Z,4.30
2022-08-23T01:32:16.742Z,5.90
2022-08-23T01:34:51.546Z,4.30
2022-08-23T01:37:24.655Z,4.90
2022-08-23T01:39:59.164Z,5.20
2022-08-23T01:42:31.157Z,5.80
2022-08-23T01:45:03.177Z,4.20
2022-08-23T01:47:35.853Z,5.70
2022-08-23T01:50:10.330Z,6.80
2022-08-23T01:52:46.795Z,4.50
2022-08-23T01:55:31.239Z,5.30
2022-08-23T01:58:08.153Z,6.60
2022-08-23T02:00:42.792Z,7.70
2022-08-23T02:03:17.826Z,5.00
2022-08-23T02:05:50.155Z,9.70
2022-08-23T02:08:40.697Z,6.20
2022-08-23T02:11:14.670Z,8.80
2022-08-23T02:13:47.689Z,6.10
2022-08-23T02:16:28.032Z,6.00
2022-08-23T02:19:02.520Z,7.60
2022-08-23T02:21:35.315Z,4.40
2022-08-23T02:24:09.972Z,5.70
2022-08-23T02:26:46.441Z,8.10
2022-08-23T02:29:21.733Z,5.40
2022-08-23T02:31:55.915Z,7.70
2022-08-23T02:34:28.809Z,5.80
2022-08-23T02:37:01.009Z,13.00
2022-08-23T02:39:34.129Z,13.70
2022-08-23T02:42:07.092Z,8.20
2022-08-23T02:44:40.347Z,5.60
2022-08-23T02:47:12.648Z,7.40
2022-08-23T02:49:47.212Z,5.00
2022-08-23T02:52:18.997Z,4.50
2022-08-23T02:54:51.239Z,6.30
2022-08-23T02:57:25.366Z,5.80
2022-08-23T02:59:59.098Z,5.40
2022-08-23T03:02:31.285Z,7.80
2022-08-23T03:05:03.547Z,6.60
2022-08-23T03:07:35.580Z,8.00
2022-08-23T03:10:10.481Z,5.90
2022-08-23T03:12:46.443Z,8.10
2022-08-23T03:15:19.056Z,6.40
2022-08-23T03:17:51.427Z,9.60
2022-08-23T03:20:23.674Z,7.10
2022-08-23T03:22:56.399Z,11.20
2022-08-23T03:25:30.038Z,8.90
2022-08-23T03:28:14.113Z,7.90
2022-08-23T03:30:49.023Z,8.20
2022-08-23T03:33:21.489Z,8.00
2022-08-23T03:35:54.147Z,6.70
2022-08-23T03:38:26.160Z,6.70
2022-08-23T03:40:58.546Z,6.50
2022-08-23T03:43:30.871Z,5.50
2022-08-23T03:46:02.677Z,4.10
2022-08-23T03:48:35.471Z,7.90
2022-08-23T03:51:08.624Z,8.70
2022-08-23T03:53:40.589Z,10.90
2022-08-23T03:56:12.570Z,8.40
2022-08-23T03:58:44.554Z,6.60
2022-08-23T04:01:17.118Z,8.30
2022-08-23T04:03:49.622Z,7.70
2022-08-23T04:06:21.823Z,6.50
2022-08-23T04:08:54.783Z,8.90
2022-08-23T04:11:27.675Z,6.20
2022-08-23T04:14:06.389Z,6.30
2022-08-23T04:16:38.992Z,6.90
2022-08-23T04:19:14.344Z,6.00
2022-08-23T04:21:54.290Z,7.60
2022-08-23T04:24:27.294Z,7.20
2022-08-23T04:26:59.230Z,7.80
2022-08-23T04:29:34.044Z,7.80
2022-08-23T04:32:09.755Z,8.30
2022-08-23T04:34:45.329Z,7.70
2022-08-23T04:37:18.697Z,6.10
2022-08-23T04:40:08.746Z,5.90
2022-08-23T04:42:45.918Z,6.70
2022-08-23T04:45:18.302Z,9.40
2022-08-23T04:47:53.111Z,8.20
2022-08-23T04:50:25.360Z,7.00
2022-08-23T04:53:22.321Z,7.80
2022-08-23T04:56:03.596Z,6.30
2022-08-23T04:58:37.110Z,5.70
2022-08-23T05:01:10.743Z,8.30
2022-08-23T05:03:43.386Z,8.50
2022-08-23T05:06:16.036Z,8.30
2022-08-23T05:08:50.178Z,8.30
2022-08-23T05:11:23.289Z,7.60
2022-08-23T05:13:55.247Z,8.80
2022-08-23T05:16:27.784Z,12.70
2022-08-23T05:19:04.825Z,10.70
2022-08-23T05:21:38.640Z,9.90
2022-08-23T05:24:13.608Z,12.20
2022-08-23T05:26:46.314Z,10.20
2022-08-23T05:29:18.805Z,8.90
2022-08-23T05:31:53.940Z,12.00
2022-08-23T05:34:26.907Z,12.70
2022-08-23T05:37:01.589Z,14.20
2022-08-23T05:39:37.670Z,11.10
2022-08-23T05:42:14.264Z,11.40
2022-08-23T05:44:46.587Z,12.60
2022-08-23T05:47:23.710Z,16.40
2022-08-23T05:50:26.016Z,12.80
2022-08-23T05:52:57.936Z,15.00
2022-08-23T05:55:34.741Z,13.20
2022-08-23T05:58:23.861Z,15.00
2022-08-23T06:00:55.745Z,11.50
2022-08-23T06:03:28.119Z,16.40
2022-08-23T06:06:01.566Z,14.30
2022-08-23T06:08:35.053Z,13.60
2022-08-23T06:11:11.098Z,14.60
2022-08-23T06:13:50.309Z,9.30
2022-08-23T06:16:26.360Z,12.10
2022-08-23T06:18:59.654Z,13.60
2022-08-23T06:21:51.207Z,15.10
2022-08-23T06:24:37.552Z,14.90
2022-08-23T06:27:20.657Z,16.60
2022-08-23T06:29:52.538Z,13.70
2022-08-23T06:32:36.351Z,13.80
2022-08-23T06:35:37.700Z,11.40
2022-08-23T06:38:24.872Z,14.50
2022-08-23T06:41:17.104Z,11.80
2022-08-23T06:44:08.317Z,11.70
2022-08-23T06:46:59.279Z,13.60
2022-08-23T06:49:31.536Z,14.00
2022-08-23T06:52:05.561Z,10.60
2022-08-23T06:55:00.400Z,12.00
2022-08-23T06:57:45.011Z,16.90
2022-08-23T07:00:36.169Z,15.70
2022-08-23T07:03:27.645Z,13.30
2022-08-23T07:06:23.178Z,16.50
2022-08-23T07:08:55.465Z,17.40
2022-08-23T07:11:31.552Z,13.70
2022-08-23T07:14:06.421Z,11.80
2022-08-23T07:16:41.550Z,15.40
2022-08-23T07:19:13.741Z,23.00
2022-08-23T07:21:48.734Z,13.00
2022-08-23T07:24:22.629Z,17.90
2022-08-23T07:26:56.915Z,16.60
2022-08-23T07:29:30.086Z,12.80
2022-08-23T07:32:02.224Z,17.50
2022-08-23T07:34:34.551Z,13.50
2022-08-23T07:37:11.473Z,15.70
2022-08-23T07:39:48.178Z,14.60
2022-08-23T07:42:23.187Z,14.60
2022-08-23T07:44:58.788Z,15.00
2022-08-23T07:47:32.941Z,20.00
2022-08-23T07:50:07.061Z,14.00
2022-08-23T07:52:39.298Z,12.00
2022-08-23T07:55:12.421Z,11.10
2022-08-23T07:58:03.906Z,14.50
2022-08-23T08:00:35.763Z,14.90
2022-08-23T08:03:27.227Z,11.20
2022-08-23T08:06:20.068Z,14.40
2022-08-23T08:08:52.999Z,17.80
2022-08-23T08:11:32.334Z,14.00
2022-08-23T08:14:10.238Z,13.60
2022-08-23T08:16:48.784Z,13.20
2022-08-23T08:19:25.032Z,14.20
2022-08-23T08:22:15.729Z,14.20
2022-08-23T08:25:08.095Z,19.30
2022-08-23T08:27:41.234Z,13.30
2022-08-23T08:30:15.584Z,23.20
2022-08-23T08:32:48.109Z,15.90
2022-08-23T08:35:20.201Z,16.50
2022-08-23T08:37:52.546Z,22.90
2022-08-23T08:40:31.581Z,18.60
2022-08-23T08:43:17.652Z,11.00
2022-08-23T08:46:01.062Z,15.60
2022-08-23T08:48:47.436Z,19.00
2022-08-23T08:51:35.801Z,13.90
2022-08-23T08:54:11.312Z,14.80
2022-08-23T08:56:53.585Z,17.00
2022-08-23T08:59:32.126Z,16.50
2022-08-23T09:02:06.468Z,16.90
2022-08-23T09:04:55.505Z,17.50
2022-08-23T09:07:37.525Z,17.00
2022-08-23T09:10:26.151Z,12.00
2022-08-23T09:13:24.246Z,17.70
2022-08-23T09:16:03.215Z,15.10
2022-08-23T09:18:38.309Z,14.50
2022-08-23T09:21:11.977Z,13.20
2022-08-23T09:23:47.678Z,13.80
2022-08-23T09:26:40.285Z,18.30
2022-08-23T09:29:22.544Z,17.00
2022-08-23T09:31:58.500Z,14.40
2022-08-23T09:34:43.696Z,17.60
2022-08-23T09:37:20.881Z,16.50
2022-08-23T09:39:55.723Z,15.20
2022-08-23T09:42:36.632Z,13.30
2022-08-23T09:45:26.592Z,17.80
2022-08-23T09:47:58.972Z,16.60
2022-08-23T09:50:35.499Z,15.30
2022-08-23T09:53:11.561Z,14.80
2022-08-23T09:55:48.246Z,16.60
2022-08-23T09:58:25.992Z,14.90
2022-08-23T10:01:11.937Z,15.90
2022-08-23T10:03:44.847Z,16.90
2022-08-23T10:06:34.219Z,15.50
2022-08-23T10:09:10.726Z,17.80
2022-08-23T10:11:46.870Z,19.00
2022-08-23T10:14:24.308Z,15.60
2022-08-23T10:17:11.156Z,14.60
2022-08-23T10:19:50.896Z,14.70
2022-08-23T10:22:25.978Z,14.20
2022-08-23T10:25:20.692Z,12.30
2022-08-23T10:28:18.404Z,14.80
2022-08-23T10:31:03.462Z,17.00
2022-08-23T10:33:48.681Z,17.00
2022-08-23T10:36:32.110Z,12.80
2022-08-23T10:39:09.071Z,19.50
2022-08-23T10:41:52.151Z,16.30
2022-08-23T10:44:35.354Z,22.90
2022-08-23T10:47:27.488Z,17.10
2022-08-23T10:50:05.816Z,15.60
2022-08-23T10:52:47.484Z,15.10
2022-08-23T10:55:39.119Z,16.20
2022-08-23T10:58:21.858Z,16.00
2022-08-23T11:00:56.941Z,15.00
2022-08-23T11:03:33.189Z,22.50
2022-08-23T11:06:44.677Z,19.30
2022-08-23T11:09:47.757Z,20.30
2022-08-23T11:12:31.689Z,13.50
2022-08-23T11:15:19.450Z,21.90
2022-08-23T11:18:04.829Z,19.50
2022-08-23T11:21:00.929Z,23.30
2022-08-23T11:23:49.289Z,21.30
2022-08-23T11:27:06.649Z,19.00
2022-08-23T11:29:43.852Z,19.80
2022-08-23T11:32:46.137Z,14.30
2022-08-23T11:35:43.241Z,18.90
2022-08-23T11:38:17.304Z,15.60
2022-08-23T11:41:12.662Z,19.90
2022-08-23T11:43:46.485Z,19.00
2022-08-23T11:46:34.905Z,16.40
2022-08-23T11:49:42.056Z,17.80
2022-08-23T11:52:28.430Z,13.80
2022-08-23T11:55:18.609Z,16.10
2022-08-23T11:58:06.344Z,19.60
2022-08-23T12:01:07.676Z,16.40
2022-08-23T12:03:56.959Z,13.30
2022-08-23T12:06:51.067Z,15.50
2022-08-23T12:09:58.459Z,19.30
2022-08-23T12:12:39.234Z,18.80
2022-08-23T12:15:14.576Z,15.60
2022-08-23T12:18:17.337Z,13.00
2022-08-23T12:20:51.904Z,22.80
2022-08-23T12:23:24.121Z,16.50
2022-08-23T12:26:08.454Z,24.50
2022-08-23T12:28:48.069Z,21.50
2022-08-23T12:31:29.979Z,16.10
2022-08-23T12:34:13.704Z,16.50
2022-08-23T12:36:55.612Z,21.50
2022-08-23T12:39:34.592Z,19.20
2022-08-23T12:42:15.632Z,19.80
2022-08-23T12:45:00.238Z,21.20
2022-08-23T12:47:33.319Z,18.30
2022-08-23T12:50:10.674Z,18.60
2022-08-23T12:52:42.721Z,16.90
2022-08-23T12:55:18.582Z,20.10
2022-08-23T12:57:59.625Z,15.20
2022-08-23T13:00:35.477Z,21.80
2022-08-23T13:03:14.643Z,18.90
2022-08-23T13:05:52.229Z,18.90
2022-08-23T13:08:35.024Z,18.00
2022-08-23T13:11:09.467Z,16.10
2022-08-23T13:13:44.186Z,16.60
2022-08-23T13:16:33.155Z,19.70
2022-08-23T13:19:22.366Z,19.30
2022-08-23T13:22:12.085Z,17.70
2022-08-23T13:24:46.310Z,22.70
2022-08-23T13:27:23.781Z,24.70
2022-08-23T13:29:59.909Z,27.70
2022-08-23T13:32:41.786Z,21.00
2022-08-23T13:35:31.181Z,22.30
2022-08-23T13:38:11.494Z,20.10
2022-08-23T13:40:48.685Z,19.40
2022-08-23T13:43:26.320Z,19.90
2022-08-23T13:46:01.444Z,20.10
2022-08-23T13:48:35.535Z,16.50
2022-08-23T13:51:28.757Z,17.40
2022-08-23T13:54:04.027Z,15.90
2022-08-23T13:56:49.430Z,14.20
2022-08-23T13:59:31.600Z,23.40
2022-08-23T14:02:07.332Z,21.60
2022-08-23T14:04:40.336Z,21.00
2022-08-23T14:07:15.117Z,20.10
2022-08-23T14:09:47.220Z,18.70
2022-08-23T14:12:27.552Z,16.10
2022-08-23T14:15:02.152Z,17.40
2022-08-23T14:17:41.326Z,17.00
2022-08-23T14:20:44.023Z,17.40
2022-08-23T14:23:12.710Z,17.60
2022-08-23T14:25:47.228Z,19.10
2022-08-23T14:28:19.954Z,19.30
2022-08-23T14:30:52.107Z,15.90
2022-08-23T14:33:24.750Z,17.90
2022-08-23T14:35:57.385Z,21.10
2022-08-23T14:38:29.887Z,20.80
2022-08-23T14:41:04.881Z,20.70
2022-08-23T14:43:37.114Z,18.70
2022-08-23T14:46:09.188Z,19.60
2022-08-23T14:48:44.365Z,17.30
2022-08-23T14:51:25.860Z,20.30
2022-08-23T14:53:58.290Z,20.60
2022-08-23T14:56:33.647Z,16.80
2022-08-23T14:59:06.149Z,22.60
2022-08-23T15:01:39.376Z,18.50
2022-08-23T15:04:13.521Z,20.50
2022-08-23T15:07:06.959Z,17.70
2022-08-23T15:09:38.400Z,24.90
2022-08-23T15:15:04.696Z,17.70
2022-08-23T15:17:44.478Z,18.60
2022-08-23T15:20:16.550Z,18.30
2022-08-23T15:22:55.818Z,17.40
2022-08-23T15:25:35.398Z,20.70
2022-08-23T15:28:12.842Z,14.90
2022-08-23T15:30:49.715Z,15.20
2022-08-23T15:33:30.840Z,15.10
2022-08-23T15:36:07.362Z,16.90
2022-08-23T15:38:40.821Z,19.20
2022-08-23T15:41:13.159Z,15.10
2022-08-23T15:43:45.770Z,11.60
2022-08-23T15:46:23.085Z,12.80
2022-08-23T15:48:58.229Z,12.30
2022-08-23T15:51:30.224Z,13.40
2022-08-23T15:54:03.082Z,14.30
2022-08-23T15:56:41.862Z,9.20
2022-08-23T15:59:16.505Z,11.70
2022-08-23T16:01:48.860Z,13.90
2022-08-23T16:04:21.048Z,8.50
2022-08-23T16:06:53.006Z,7.50
2022-08-23T16:09:26.917Z,11.40
2022-08-23T16:12:26.853Z,12.20
2022-08-23T16:14:58.707Z,7.70
2022-08-23T16:17:30.932Z,8.00
2022-08-23T16:20:03.243Z,5.40
2022-08-23T16:22:35.113Z,9.50
2022-08-23T16:25:10.128Z,9.90
2022-08-23T16:27:42.022Z,9.40
2022-08-23T16:30:15.487Z,9.00
2022-08-23T16:32:47.599Z,7.70
2022-08-23T16:35:19.770Z,8.30
2022-08-23T16:37:51.722Z,7.20
2022-08-23T16:40:23.865Z,5.60
2022-08-23T16:42:56.480Z,5.60
2022-08-23T16:45:28.665Z,7.80
2022-08-23T16:48:00.867Z,6.50
2022-08-23T16:50:33.117Z,7.80
2022-08-23T16:53:07.386Z,9.80
2022-08-23T16:55:40.713Z,7.30
2022-08-23T16:58:13.119Z,10.20
2022-08-23T17:00:45.367Z,10.70
2022-08-23T17:03:19.034Z,8.10
2022-08-23T17:05:51.101Z,8.20
2022-08-23T17:08:23.000Z,5.70
2022-08-23T17:10:55.135Z,6.30
2022-08-23T17:13:27.654Z,7.50
2022-08-23T17:15:59.548Z,7.20
2022-08-23T17:18:33.672Z,6.00
2022-08-23T17:21:06.851Z,8.90
2022-08-23T17:23:40.628Z,8.00
2022-08-23T17:26:13.846Z,14.30
2022-08-23T17:28:46.265Z,8.60
2022-08-23T17:31:19.768Z,8.40
2022-08-23T17:33:51.751Z,7.10
2022-08-23T17:36:31.922Z,7.70
2022-08-23T17:43:39.982Z,9.70
2022-08-23T17:49:38.931Z,10.10
2022-08-23T17:52:12.276Z,14.00
2022-08-23T17:54:47.771Z,10.90
2022-08-23T17:57:24.882Z,7.90
2022-08-23T17:59:58.367Z,9.60
2022-08-23T18:02:30.473Z,9.80
2022-08-23T18:05:02.453Z,8.40
2022-08-23T18:07:34.294Z,9.80
2022-08-23T18:10:07.589Z,11.50
2022-08-23T18:12:40.151Z,9.60
2022-08-23T18:15:13.757Z,8.00
2022-08-23T18:17:46.567Z,8.60
2022-08-23T18:20:18.830Z,7.30
2022-08-23T18:22:51.157Z,7.90
2022-08-23T18:25:23.393Z,8.70
2022-08-23T18:28:12.469Z,10.20
2022-08-23T18:30:53.572Z,10.70
2022-08-23T18:33:31.445Z,8.40
2022-08-23T18:36:06.299Z,8.10
2022-08-23T18:38:38.514Z,9.00
2022-08-23T18:41:11.008Z,8.50
2022-08-23T18:43:48.018Z,6.70
2022-08-23T18:46:20.446Z,7.10
2022-08-23T18:48:54.519Z,11.20
2022-08-23T18:51:26.984Z,8.80
2022-08-23T18:54:13.532Z,10.20
2022-08-23T18:56:46.012Z,11.10
2022-08-23T18:59:20.718Z,10.60
2022-08-23T19:01:52.636Z,9.00
2022-08-23T19:04:24.576Z,9.20
2022-08-23T19:06:56.995Z,9.20
2022-08-23T19:09:29.263Z,9.40
2022-08-23T19:12:01.444Z,11.00
2022-08-23T19:14:35.811Z,7.90
2022-08-23T19:17:09.350Z,10.10
2022-08-23T19:19:41.593Z,8.90
2022-08-23T19:22:14.595Z,8.50
2022-08-23T19:24:46.580Z,12.10
2022-08-23T19:27:18.522Z,12.20
2022-08-23T19:29:51.102Z,9.50
2022-08-23T19:32:23.714Z,9.80
2022-08-23T19:34:55.650Z,11.40
2022-08-23T19:37:29.959Z,10.20
2022-08-23T19:40:02.600Z,9.30
2022-08-23T19:42:37.169Z,8.40
2022-08-23T19:45:11.253Z,9.80
2022-08-23T19:47:43.192Z,9.40
2022-08-23T19:50:15.574Z,8.80
2022-08-23T19:52:56.761Z,12.80
2022-08-23T19:55:29.519Z,8.50
2022-08-23T19:58:01.830Z,10.20
2022-08-23T20:00:34.635Z,8.60
2022-08-23T20:03:07.000Z,9.80
2022-08-23T20:05:39.380Z,11.90
2022-08-23T20:08:12.250Z,11.40
2022-08-23T20:10:46.281Z,11.80
2022-08-23T20:13:20.159Z,10.40
2022-08-23T20:15:55.991Z,10.30
2022-08-23T20:18:28.480Z,10.60
2022-08-23T20:21:01.094Z,13.60
2022-08-23T20:23:53.535Z,10.70
2022-08-23T20:26:25.805Z,13.60
2022-08-23T20:29:00.133Z,9.20
2022-08-23T20:31:35.270Z,12.90
2022-08-23T20:34:09.338Z,9.80
2022-08-23T20:36:41.677Z,9.20
2022-08-23T20:39:20.382Z,13.20
2022-08-23T20:41:54.136Z,10.90
2022-08-23T20:44:30.146Z,11.50
2022-08-23T20:47:03.372Z,9.60
2022-08-23T20:49:35.490Z,11.50
2022-08-23T20:52:08.477Z,11.30
2022-08-23T20:54:40.843Z,9.90
2022-08-23T20:57:12.814Z,8.70
2022-08-23T20:59:45.329Z,11.10
2022-08-23T21:02:17.440Z,11.20
2022-08-23T21:04:49.593Z,11.60
2022-08-23T21:07:21.713Z,10.00
2022-08-23T21:09:54.106Z,7.70
2022-08-23T21:12:26.197Z,10.50
2022-08-23T21:14:59.666Z,8.20
2022-08-23T21:17:31.820Z,8.80
2022-08-23T21:20:04.730Z,11.50
2022-08-23T21:22:40.101Z,9.00
2022-08-23T21:25:15.507Z,9.90
2022-08-23T21:27:47.299Z,9.80
2022-08-23T21:30:19.263Z,10.70
2022-08-23T21:32:51.127Z,12.90
2022-08-23T21:35:25.113Z,8.90
2022-08-23T21:37:57.087Z,10.50
2022-08-23T21:40:29.143Z,8.60
2022-08-23T21:43:01.308Z,8.30
2022-08-23T21:45:33.302Z,11.60
2022-08-23T21:48:07.274Z,9.60
2022-08-23T21:50:39.154Z,10.40
2022-08-23T21:53:11.710Z,8.70
2022-08-23T21:55:44.016Z,12.00
2022-08-23T21:58:18.290Z,9.70
2022-08-23T22:00:50.192Z,10.60
2022-08-23T22:03:22.425Z,10.70
2022-08-23T22:05:54.826Z,9.80
2022-08-23T22:08:26.719Z,11.10
2022-08-23T22:11:05.351Z,10.30
2022-08-23T22:13:39.148Z,11.10
2022-08-23T22:16:12.047Z,10.70
2022-08-23T22:18:44.071Z,9.70
2022-08-23T22:21:16.224Z,12.50
2022-08-23T22:23:48.241Z,11.80
2022-08-23T22:26:20.125Z,12.30
2022-08-23T22:28:51.989Z,10.10
2022-08-23T22:31:24.321Z,14.20
2022-08-23T22:33:56.410Z,13.10
2022-08-23T22:36:28.365Z,13.20
2022-08-23T22:39:01.009Z,11.50
2022-08-23T22:41:33.811Z,14.00
2022-08-23T22:44:06.894Z,12.80
2022-08-23T22:46:38.803Z,13.70
2022-08-23T22:49:11.198Z,11.90
2022-08-23T22:51:43.315Z,13.40
2022-08-23T22:54:15.453Z,12.70
2022-08-23T22:56:49.088Z,13.60
2022-08-23T22:59:22.785Z,15.20
2022-08-23T23:01:59.893Z,13.20
2022-08-23T23:04:35.787Z,14.60
2022-08-23T23:07:07.725Z,13.60
2022-08-23T23:09:39.545Z,14.80
2022-08-23T23:12:11.598Z,13.80
2022-08-23T23:14:43.451Z,12.30
2022-08-23T23:17:18.308Z,14.00
2022-08-23T23:20:07.851Z,15.60
2022-08-23T23:22:39.750Z,13.70
2022-08-23T23:25:11.838Z,14.10
2022-08-23T23:27:43.995Z,14.00
2022-08-23T23:30:19.830Z,17.50
2022-08-23T23:32:52.663Z,16.20
2022-08-23T23:35:24.637Z,15.60
2022-08-23T23:37:57.085Z,13.30
2022-08-23T23:40:30.238Z,18.30
2022-08-23T23:43:02.760Z,16.80
2022-08-23T23:45:34.952Z,15.80
2022-08-23T23:48:08.434Z,17.70
2022-08-23T23:50:46.652Z,16.50
2022-08-23T23:53:20.629Z,13.70
2022-08-23T23:56:01.895Z,16.90
2022-08-23T23:58:34.556Z,25.50
